createdAt,value
2023-04-08T00:00:30.930Z,7.77
2023-04-08T00:02:59.121Z,8.00
2023-04-08T00:05:28.600Z,8.10
2023-04-08T00:07:56.554Z,7.63
2023-04-08T00:10:25.055Z,8.47
2023-04-08T00:12:53.101Z,8.20
2023-04-08T00:15:21.094Z,8.57
2023-04-08T00:17:49.061Z,8.13
2023-04-08T00:20:17.210Z,9.23
2023-04-08T00:22:46.777Z,9.90
2023-04-08T00:25:14.797Z,8.53
2023-04-08T00:27:42.758Z,9.33
2023-04-08T00:30:11.677Z,8.83
2023-04-08T00:32:39.984Z,10.43
2023-04-08T00:35:08.730Z,11.20
2023-04-08T00:37:37.175Z,10.40
2023-04-08T00:40:07.467Z,9.53
2023-04-08T00:42:35.506Z,9.43
2023-04-08T00:45:03.792Z,10.40
2023-04-08T00:47:32.057Z,10.37
2023-04-08T00:50:00.318Z,10.23
2023-04-08T00:52:28.359Z,11.03
2023-04-08T00:54:57.244Z,11.47
2023-04-08T00:57:26.601Z,10.60
2023-04-08T00:59:54.715Z,10.77
2023-04-08T01:02:32.117Z,10.80
2023-04-08T01:05:04.658Z,10.40
2023-04-08T01:07:35.155Z,10.43
2023-04-08T01:10:08.788Z,9.93
2023-04-08T01:12:43.244Z,11.93
2023-04-08T01:15:13.629Z,11.63
2023-04-08T01:17:42.632Z,11.10
2023-04-08T01:20:12.368Z,10.47
2023-04-08T01:22:54.831Z,10.63
2023-04-08T01:25:24.933Z,11.37
2023-04-08T01:27:56.786Z,10.80
2023-04-08T01:30:26.928Z,11.00
2023-04-08T01:32:56.732Z,12.27
2023-04-08T01:35:25.728Z,11.83
2023-04-08T01:37:55.379Z,12.73
2023-04-08T01:40:23.473Z,12.30
2023-04-08T01:42:54.144Z,11.50
2023-04-08T01:45:24.614Z,11.67
2023-04-08T01:47:53.947Z,11.70
2023-04-08T01:50:22.408Z,11.67
2023-04-08T01:52:53.801Z,11.60
2023-04-08T01:55:22.816Z,11.97
2023-04-08T01:57:53.634Z,11.97
2023-04-08T02:00:26.021Z,11.53
2023-04-08T02:02:55.719Z,11.43
2023-04-08T02:05:23.997Z,12.17
2023-04-08T02:07:52.091Z,12.57
2023-04-08T02:10:20.249Z,11.20
2023-04-08T02:12:48.973Z,11.73
2023-04-08T02:15:17.274Z,11.73
2023-04-08T02:17:50.520Z,11.50
2023-04-08T02:20:20.598Z,12.60
2023-04-08T02:22:51.625Z,11.57
2023-04-08T02:25:24.323Z,10.87
2023-04-08T02:27:54.074Z,11.97
2023-04-08T02:30:23.551Z,11.20
2023-04-08T02:32:54.882Z,11.90
2023-04-08T02:35:24.039Z,11.97
2023-04-08T02:37:52.248Z,11.33
2023-04-08T02:40:27.780Z,11.20
2023-04-08T02:42:56.537Z,11.17
2023-04-08T02:45:27.910Z,11.47
2023-04-08T02:47:57.374Z,11.73
2023-04-08T02:50:25.463Z,11.33
2023-04-08T02:52:53.420Z,12.50
2023-04-08T02:55:21.517Z,11.67
2023-04-08T02:57:50.291Z,11.43
2023-04-08T03:00:18.638Z,11.37
2023-04-08T03:02:46.824Z,12.30
2023-04-08T03:05:16.838Z,11.57
2023-04-08T03:07:44.838Z,12.83
2023-04-08T03:10:14.355Z,11.80
2023-04-08T03:12:42.303Z,12.10
2023-04-08T03:15:10.940Z,13.43
2023-04-08T03:17:38.995Z,12.80
2023-04-08T03:20:08.300Z,11.70
2023-04-08T03:22:38.122Z,13.13
2023-04-08T03:25:08.373Z,12.97
2023-04-08T03:27:36.344Z,12.17
2023-04-08T03:30:04.581Z,12.63
2023-04-08T03:32:33.705Z,13.30
2023-04-08T03:35:01.782Z,12.67
2023-04-08T03:37:29.778Z,13.17
2023-04-08T03:39:59.115Z,11.87
2023-04-08T03:42:27.210Z,13.00
2023-04-08T03:44:55.214Z,12.73
2023-04-08T03:47:23.214Z,13.43
2023-04-08T03:49:51.242Z,13.10
2023-04-08T03:52:19.204Z,13.17
2023-04-08T03:54:47.166Z,14.17
2023-04-08T03:57:16.511Z,12.93
2023-04-08T03:59:44.464Z,13.73
2023-04-08T04:02:12.505Z,13.40
2023-04-08T04:04:40.643Z,13.83
2023-04-08T04:07:08.654Z,13.70
2023-04-08T04:09:36.643Z,13.53
2023-04-08T04:12:04.713Z,13.70
2023-04-08T04:14:34.021Z,14.60
2023-04-08T04:17:02.047Z,13.97
2023-04-08T04:19:32.174Z,12.97
2023-04-08T04:22:00.172Z,13.87
2023-04-08T04:24:28.179Z,14.33
2023-04-08T04:26:56.586Z,13.83
2023-04-08T04:29:24.619Z,14.00
2023-04-08T04:31:53.936Z,13.90
2023-04-08T04:34:21.938Z,13.60
2023-04-08T04:36:49.897Z,13.07
2023-04-08T04:39:18.195Z,13.20
2023-04-08T04:41:47.336Z,13.37
2023-04-08T04:44:15.929Z,13.10
2023-04-08T04:46:44.037Z,13.87
2023-04-08T04:49:13.393Z,13.93
2023-04-08T04:51:41.504Z,13.80
2023-04-08T04:54:09.489Z,14.20
2023-04-08T04:56:40.153Z,14.27
2023-04-08T04:59:08.676Z,13.13
2023-04-08T05:01:36.762Z,13.87
2023-04-08T05:04:04.853Z,15.20
2023-04-08T05:06:34.234Z,13.83
2023-04-08T05:09:02.231Z,13.70
2023-04-08T05:11:30.271Z,15.47
2023-04-08T05:13:58.208Z,14.50
2023-04-08T05:16:26.235Z,15.20
2023-04-08T05:18:54.233Z,13.93
2023-04-08T05:21:22.208Z,15.33
2023-04-08T05:23:53.051Z,53.27
2023-04-08T05:26:21.718Z,46.17
2023-04-08T05:28:50.035Z,60.33
2023-04-08T05:31:18.604Z,58.87
2023-04-08T05:33:46.620Z,57.17
2023-04-08T05:36:15.358Z,42.87
2023-04-08T05:38:44.300Z,48.43
2023-04-08T05:41:13.658Z,47.80
2023-04-08T05:43:41.612Z,46.13
2023-04-08T05:46:10.522Z,59.87
2023-04-08T05:48:38.612Z,58.40
2023-04-08T05:51:06.593Z,53.13
2023-04-08T05:53:34.561Z,44.20
2023-04-08T05:56:02.480Z,46.70
2023-04-08T05:58:31.819Z,47.93
2023-04-08T06:00:59.860Z,48.43
2023-04-08T06:03:27.947Z,50.07
2023-04-08T06:05:56.605Z,48.17
2023-04-08T06:08:24.778Z,39.80
2023-04-08T06:10:53.505Z,43.57
2023-04-08T06:13:22.046Z,40.73
2023-04-08T06:15:51.423Z,57.10
2023-04-08T06:18:19.405Z,58.43
2023-04-08T06:20:47.386Z,56.77
2023-04-08T06:23:15.446Z,58.13
2023-04-08T06:25:43.456Z,56.03
2023-04-08T06:28:11.452Z,55.93
2023-04-08T06:30:39.548Z,50.40
2023-04-08T06:33:09.311Z,45.50
2023-04-08T06:35:37.821Z,47.97
2023-04-08T06:38:05.881Z,64.40
2023-04-08T06:40:33.962Z,67.40
2023-04-08T06:43:01.971Z,72.43
2023-04-08T06:45:30.156Z,69.67
2023-04-08T06:47:58.227Z,70.73
2023-04-08T06:50:27.628Z,73.20
2023-04-08T06:52:56.101Z,76.80
2023-04-08T06:55:24.067Z,74.60
2023-04-08T06:57:52.088Z,74.43
2023-04-08T07:00:20.073Z,73.23
2023-04-08T07:02:48.090Z,75.60
2023-04-08T07:05:16.606Z,75.03
2023-04-08T07:07:46.278Z,76.67
2023-04-08T07:10:14.360Z,74.43
2023-04-08T07:12:42.312Z,78.83
2023-04-08T07:15:11.354Z,81.73
2023-04-08T07:17:39.464Z,86.67
2023-04-08T07:20:08.793Z,88.27
2023-04-08T07:22:36.789Z,84.87
2023-04-08T07:25:06.984Z,88.80
2023-04-08T07:27:35.196Z,86.73
2023-04-08T07:30:03.282Z,90.20
2023-04-08T07:32:32.147Z,89.33
2023-04-08T07:35:00.747Z,89.03
2023-04-08T07:37:29.073Z,91.90
2023-04-08T07:39:57.113Z,94.00
2023-04-08T07:42:27.332Z,96.03
2023-04-08T07:44:55.710Z,95.10
2023-04-08T07:47:23.755Z,86.63
2023-04-08T07:49:51.760Z,86.00
2023-04-08T07:52:19.730Z,87.77
2023-04-08T07:54:47.698Z,88.67
2023-04-08T07:57:15.685Z,84.07
2023-04-08T07:59:46.530Z,80.90
2023-04-08T08:02:14.567Z,84.77
2023-04-08T08:04:42.706Z,87.00
2023-04-08T08:07:11.101Z,90.30
2023-04-08T08:09:39.040Z,93.60
2023-04-08T08:12:07.074Z,98.00
2023-04-08T08:14:35.058Z,94.80
2023-04-08T08:17:04.961Z,99.60
2023-04-08T08:19:32.912Z,99.57
2023-04-08T08:22:00.932Z,102.03
2023-04-08T08:24:28.893Z,107.90
2023-04-08T08:26:56.952Z,112.77
2023-04-08T08:29:24.916Z,115.13
2023-04-08T08:31:52.909Z,115.87
2023-04-08T08:34:22.245Z,115.37
2023-04-08T08:36:50.332Z,117.17
2023-04-08T08:39:18.427Z,120.47
2023-04-08T08:41:46.649Z,119.60
2023-04-08T08:44:14.682Z,119.70
2023-04-08T08:46:45.909Z,118.30
2023-04-08T08:49:14.047Z,122.70
2023-04-08T08:51:46.595Z,128.23
2023-04-08T08:54:16.015Z,123.43
2023-04-08T08:56:44.159Z,126.13
2023-04-08T08:59:12.145Z,124.90
2023-04-08T09:01:41.958Z,128.60
2023-04-08T09:04:12.401Z,130.07
2023-04-08T09:06:40.551Z,132.20
2023-04-08T09:09:11.457Z,135.17
2023-04-08T09:11:40.844Z,132.53
2023-04-08T09:14:22.731Z,134.50
2023-04-08T09:16:51.560Z,132.23
2023-04-08T09:19:20.307Z,137.77
2023-04-08T09:22:06.852Z,136.00
2023-04-08T09:24:37.284Z,136.03
2023-04-08T09:27:06.090Z,133.90
2023-04-08T09:29:37.358Z,134.70
2023-04-08T09:32:06.749Z,131.37
2023-04-08T09:34:34.843Z,118.73
2023-04-08T09:37:03.064Z,127.23
2023-04-08T09:39:32.278Z,120.20
2023-04-08T09:42:03.448Z,126.10
2023-04-08T09:44:34.678Z,123.97
2023-04-08T09:47:09.506Z,123.53
2023-04-08T09:49:44.906Z,122.53
2023-04-08T09:52:16.397Z,121.47
2023-04-08T09:54:51.734Z,124.37
2023-04-08T09:57:29.715Z,123.93
2023-04-08T10:00:05.379Z,127.17
2023-04-08T10:02:40.403Z,124.73
2023-04-08T10:05:10.125Z,127.30
2023-04-08T10:07:38.406Z,144.63
2023-04-08T10:10:09.295Z,151.93
2023-04-08T10:12:39.107Z,154.23
2023-04-08T10:15:26.701Z,159.83
2023-04-08T10:17:55.338Z,166.87
2023-04-08T10:20:42.911Z,169.02
2023-04-08T10:23:13.278Z,167.43
2023-04-08T10:25:42.443Z,173.00
2023-04-08T10:28:35.593Z,135.80
2023-04-08T10:31:03.716Z,140.00
2023-04-08T10:33:38.477Z,19.02
2023-04-08T10:36:13.347Z,17.08
2023-04-08T10:38:42.684Z,27.10
2023-04-08T10:41:12.033Z,54.45
2023-04-08T10:43:41.426Z,48.88
2023-04-08T10:46:11.933Z,56.15
2023-04-08T10:48:40.204Z,58.78
2023-04-08T10:51:08.312Z,64.95
2023-04-08T10:53:37.176Z,60.58
2023-04-08T10:56:06.401Z,66.65
2023-04-08T10:58:34.405Z,75.43
2023-04-08T11:01:08.309Z,82.75
2023-04-08T11:03:37.830Z,147.55
2023-04-08T11:06:07.482Z,156.10
2023-04-08T11:08:36.702Z,177.52
2023-04-08T11:11:08.869Z,177.02
2023-04-08T11:13:37.808Z,216.77
2023-04-08T11:16:17.763Z,211.20
2023-04-08T11:18:54.185Z,133.00
2023-04-08T11:21:24.140Z,159.23
2023-04-08T11:23:53.339Z,159.10
2023-04-08T11:26:22.116Z,138.52
2023-04-08T11:28:51.645Z,82.68
2023-04-08T11:31:24.742Z,99.80
2023-04-08T11:33:55.424Z,85.30
2023-04-08T11:36:23.414Z,70.88
2023-04-08T11:38:51.404Z,26.15
2023-04-08T11:41:19.369Z,20.30
2023-04-08T11:43:57.689Z,16.90
2023-04-08T11:46:27.235Z,14.07
2023-04-08T11:48:59.932Z,12.55
2023-04-08T11:51:28.610Z,13.10
2023-04-08T11:53:57.265Z,8.68
2023-04-08T11:56:26.480Z,11.77
2023-04-08T11:58:54.544Z,8.25
2023-04-08T12:01:22.654Z,8.73
2023-04-08T12:04:04.352Z,8.35
2023-04-08T12:06:32.512Z,8.07
2023-04-08T12:09:00.528Z,7.95
2023-04-08T12:11:28.623Z,7.05
2023-04-08T12:13:57.336Z,7.85
2023-04-08T12:16:25.376Z,14.70
2023-04-08T12:18:53.372Z,7.40
2023-04-08T12:21:22.821Z,7.15
2023-04-08T12:23:51.050Z,6.85
2023-04-08T12:26:19.739Z,7.03
2023-04-08T12:28:47.728Z,5.82
2023-04-08T12:31:15.819Z,5.60
2023-04-08T12:33:44.081Z,5.63
2023-04-08T12:36:13.765Z,6.25
2023-04-08T12:38:43.205Z,6.80
2023-04-08T12:41:11.416Z,5.97
2023-04-08T12:43:39.717Z,7.20
2023-04-08T12:46:07.958Z,7.43
2023-04-08T12:48:36.730Z,6.82
2023-04-08T12:51:04.779Z,7.15
2023-04-08T12:53:32.728Z,6.38
2023-04-08T12:56:02.845Z,6.00
2023-04-08T12:58:30.879Z,6.20
2023-04-08T13:00:58.867Z,6.75
2023-04-08T13:03:29.265Z,6.40
2023-04-08T13:05:59.027Z,6.07
2023-04-08T13:08:27.036Z,6.10
2023-04-08T13:10:55.582Z,5.90
2023-04-08T13:13:24.960Z,5.70
2023-04-08T13:15:52.982Z,6.90
2023-04-08T13:18:20.931Z,5.78
2023-04-08T13:20:48.902Z,4.35
2023-04-08T13:23:17.952Z,5.05
2023-04-08T13:25:46.524Z,5.15
2023-04-08T13:28:14.537Z,5.22
2023-04-08T13:30:43.859Z,5.13
2023-04-08T13:33:12.104Z,5.38
2023-04-08T13:35:40.234Z,5.47
2023-04-08T13:38:08.535Z,5.30
2023-04-08T13:40:36.833Z,4.80
2023-04-08T13:43:04.814Z,5.10
2023-04-08T13:45:32.877Z,6.00
2023-04-08T13:48:02.258Z,5.55
2023-04-08T13:50:31.728Z,5.88
2023-04-08T13:52:59.865Z,6.18
2023-04-08T13:55:27.903Z,6.05
2023-04-08T13:57:56.056Z,6.22
2023-04-08T14:00:25.490Z,6.80
2023-04-08T14:02:53.571Z,6.82
2023-04-08T14:05:23.019Z,6.93
2023-04-08T14:07:51.039Z,5.82
2023-04-08T14:10:19.069Z,4.88
2023-04-08T14:12:47.616Z,6.72
2023-04-08T14:15:15.699Z,6.00
2023-04-08T14:17:43.718Z,5.60
2023-04-08T14:20:12.271Z,5.55
2023-04-08T14:22:41.922Z,5.13
2023-04-08T14:25:10.526Z,4.95
2023-04-08T14:27:51.002Z,5.50
2023-04-08T14:30:25.119Z,5.60
2023-04-08T14:32:53.400Z,5.63
2023-04-08T14:35:21.502Z,4.65
2023-04-08T14:37:50.952Z,5.70
2023-04-08T14:40:18.917Z,5.60
2023-04-08T14:42:49.745Z,5.85
2023-04-08T14:45:18.140Z,6.20
2023-04-08T14:47:46.252Z,5.28
2023-04-08T14:50:14.276Z,5.90
2023-04-08T14:52:42.337Z,6.07
2023-04-08T14:55:12.058Z,6.03
2023-04-08T14:57:40.081Z,5.88
2023-04-08T15:00:09.950Z,5.93
2023-04-08T15:02:38.145Z,5.57
2023-04-08T15:05:07.062Z,5.05
2023-04-08T15:07:35.644Z,5.13
2023-04-08T15:10:03.712Z,4.95
2023-04-08T15:12:33.406Z,6.72
2023-04-08T15:15:01.437Z,5.57
2023-04-08T15:17:29.511Z,7.80
2023-04-08T15:19:58.655Z,7.07
2023-04-08T15:22:27.078Z,5.65
2023-04-08T15:24:55.412Z,7.18
2023-04-08T15:27:23.355Z,7.50
2023-04-08T15:29:52.908Z,11.20
2023-04-08T15:32:20.949Z,14.82
2023-04-08T15:34:50.592Z,10.25
2023-04-08T15:37:20.385Z,12.05
2023-04-08T15:39:48.358Z,11.60
2023-04-08T15:42:16.331Z,16.08
2023-04-08T15:44:44.284Z,8.43
2023-04-08T15:47:13.622Z,14.48
2023-04-08T15:49:41.588Z,12.25
2023-04-08T15:52:09.662Z,19.85
2023-04-08T15:54:37.762Z,28.45
2023-04-08T15:57:05.865Z,26.95
2023-04-08T15:59:33.843Z,24.92
2023-04-08T16:02:01.993Z,22.60
2023-04-08T16:04:31.383Z,22.30
2023-04-08T16:06:59.469Z,27.00
2023-04-08T16:09:27.431Z,38.40
2023-04-08T16:11:55.452Z,27.00
2023-04-08T16:14:23.520Z,15.77
2023-04-08T16:16:51.506Z,11.15
2023-04-08T16:19:22.171Z,14.38
2023-04-08T16:21:51.528Z,14.32
2023-04-08T16:24:20.776Z,16.27
2023-04-08T16:26:48.804Z,17.05
2023-04-08T16:29:16.864Z,12.80
2023-04-08T16:31:44.856Z,18.38
2023-04-08T16:34:12.789Z,38.15
2023-04-08T16:36:40.952Z,35.53
2023-04-08T16:39:10.512Z,58.80
2023-04-08T16:41:39.484Z,83.93
2023-04-08T16:44:07.610Z,37.90
2023-04-08T16:46:36.195Z,51.17
2023-04-08T16:49:04.253Z,58.72
2023-04-08T16:51:32.238Z,44.47
2023-04-08T16:54:00.530Z,99.40
2023-04-08T16:56:30.218Z,101.80
2023-04-08T16:58:58.162Z,96.45
2023-04-08T17:01:27.100Z,140.00
2023-04-08T17:03:55.498Z,102.25
2023-04-08T17:06:24.100Z,94.60
2023-04-08T17:08:53.775Z,76.78
2023-04-08T17:11:21.990Z,69.82
2023-04-08T17:13:51.506Z,123.05
2023-04-08T17:16:19.807Z,125.72
2023-04-08T17:18:47.916Z,104.97
2023-04-08T17:21:16.083Z,132.75
2023-04-08T17:23:44.145Z,128.73
2023-04-08T17:26:12.807Z,106.05
2023-04-08T17:28:40.924Z,74.40
2023-04-08T17:31:10.953Z,66.32
2023-04-08T17:33:38.954Z,54.85
2023-04-08T17:36:07.582Z,49.15
2023-04-08T17:38:39.696Z,62.08
2023-04-08T17:41:09.957Z,45.80
2023-04-08T17:43:38.127Z,55.50
2023-04-08T17:46:06.325Z,52.40
2023-04-08T17:48:36.539Z,51.55
2023-04-08T17:51:06.233Z,53.17
2023-04-08T17:53:34.960Z,58.30
2023-04-08T17:56:03.198Z,52.53
2023-04-08T17:58:31.153Z,41.17
2023-04-08T18:00:59.268Z,41.83
2023-04-08T18:03:27.475Z,30.60
2023-04-08T18:05:57.016Z,34.17
2023-04-08T18:08:25.014Z,37.10
2023-04-08T18:10:53.083Z,28.40
2023-04-08T18:13:21.118Z,30.77
2023-04-08T18:15:49.107Z,31.07
2023-04-08T18:18:20.113Z,32.43
2023-04-08T18:20:48.113Z,34.30
2023-04-08T18:23:17.497Z,31.00
2023-04-08T18:25:47.332Z,27.60
2023-04-08T18:28:15.608Z,27.03
2023-04-08T18:30:43.797Z,25.20
2023-04-08T18:33:12.006Z,24.67
2023-04-08T18:35:40.181Z,27.03
2023-04-08T18:38:08.283Z,20.47
2023-04-08T18:40:37.765Z,21.67
2023-04-08T18:43:06.036Z,11.10
2023-04-08T18:45:34.115Z,10.03
2023-04-08T18:48:02.190Z,10.00
2023-04-08T18:50:30.263Z,14.03
2023-04-08T18:52:58.213Z,12.50
2023-04-08T18:55:26.242Z,8.93
2023-04-08T18:57:55.577Z,17.00
2023-04-08T19:00:23.696Z,16.57
2023-04-08T19:02:51.768Z,16.73
2023-04-08T19:05:20.250Z,18.30
2023-04-08T19:07:48.313Z,21.47
2023-04-08T19:10:16.290Z,21.27
2023-04-08T19:12:44.338Z,20.10
2023-04-08T19:15:14.676Z,22.53
2023-04-08T19:17:42.708Z,25.10
2023-04-08T19:20:11.384Z,25.43
2023-04-08T19:22:40.703Z,25.53
2023-04-08T19:25:09.251Z,26.07
2023-04-08T19:27:37.576Z,27.63
2023-04-08T19:30:06.739Z,29.73
2023-04-08T19:32:36.368Z,28.97
2023-04-08T19:35:04.614Z,26.83
2023-04-08T19:37:32.636Z,28.60
2023-04-08T19:40:00.604Z,26.80
2023-04-08T19:42:29.141Z,26.10
2023-04-08T19:44:57.121Z,24.93
2023-04-08T19:47:25.123Z,24.13
2023-04-08T19:49:54.434Z,20.30
2023-04-08T19:52:22.486Z,20.77
2023-04-08T19:54:51.605Z,24.00
2023-04-08T19:57:19.876Z,25.53
2023-04-08T19:59:49.695Z,26.43
2023-04-08T20:02:17.709Z,23.23
2023-04-08T20:04:46.179Z,22.70
2023-04-08T20:07:15.665Z,32.77
2023-04-08T20:09:43.639Z,37.07
2023-04-08T20:12:11.563Z,41.87
2023-04-08T20:14:43.239Z,51.87
2023-04-08T20:17:11.284Z,54.10
2023-04-08T20:19:40.240Z,57.07
2023-04-08T20:22:08.264Z,41.33
2023-04-08T20:24:37.701Z,46.67
2023-04-08T20:27:05.650Z,38.70
2023-04-08T20:29:34.431Z,40.20
2023-04-08T20:32:02.380Z,25.20
2023-04-08T20:34:30.361Z,11.03
2023-04-08T20:36:58.387Z,21.17
2023-04-08T20:39:29.991Z,20.30
2023-04-08T20:41:59.672Z,22.33
2023-04-08T20:44:28.337Z,21.40
2023-04-08T20:46:56.364Z,24.40
2023-04-08T20:49:24.786Z,23.87
2023-04-08T20:51:52.739Z,26.20
2023-04-08T20:54:20.719Z,24.83
2023-04-08T20:56:48.737Z,25.97
2023-04-08T20:59:18.053Z,27.10
2023-04-08T21:01:46.218Z,17.07
2023-04-08T21:04:14.333Z,22.50
2023-04-08T21:06:42.360Z,13.13
2023-04-08T21:09:11.375Z,8.50
2023-04-08T21:11:39.325Z,14.57
2023-04-08T21:14:07.321Z,19.10
2023-04-08T21:16:36.662Z,13.43
2023-04-08T21:19:04.684Z,9.40
2023-04-08T21:21:32.733Z,12.83
2023-04-08T21:24:01.474Z,9.47
2023-04-08T21:26:29.519Z,8.53
2023-04-08T21:28:57.575Z,10.80
2023-04-08T21:31:25.543Z,17.07
2023-04-08T21:33:54.985Z,13.00
2023-04-08T21:36:22.989Z,13.47
2023-04-08T21:38:51.369Z,13.63
2023-04-08T21:41:19.433Z,20.47
2023-04-08T21:43:48.508Z,12.00
2023-04-08T21:46:16.555Z,12.93
2023-04-08T21:48:44.591Z,12.00
2023-04-08T21:51:17.752Z,10.83
2023-04-08T21:53:46.081Z,13.53
2023-04-08T21:56:14.162Z,10.93
2023-04-08T21:58:42.224Z,11.07
2023-04-08T22:01:10.302Z,8.43
2023-04-08T22:03:38.414Z,9.60
2023-04-08T22:06:10.975Z,12.17
2023-04-08T22:08:42.149Z,11.30
2023-04-08T22:11:10.146Z,10.87
2023-04-08T22:13:38.140Z,12.33
2023-04-08T22:16:07.764Z,11.90
2023-04-08T22:18:35.787Z,9.50
2023-04-08T22:21:03.971Z,9.23
2023-04-08T22:23:32.001Z,11.93
2023-04-08T22:26:01.392Z,14.70
2023-04-08T22:28:29.542Z,11.77
2023-04-08T22:30:57.488Z,8.87
2023-04-08T22:33:25.716Z,8.70
2023-04-08T22:35:53.756Z,8.40
2023-04-08T22:38:21.894Z,15.50
2023-04-08T22:40:49.901Z,9.17
2023-04-08T22:43:19.234Z,10.37
2023-04-08T22:45:47.221Z,15.60
2023-04-08T22:48:15.470Z,16.97
2023-04-08T22:50:43.633Z,18.53
2023-04-08T22:53:11.817Z,19.30
2023-04-08T22:55:39.881Z,21.03
2023-04-08T22:58:07.869Z,21.93
2023-04-08T23:00:37.202Z,21.40
2023-04-08T23:03:05.721Z,21.53
2023-04-08T23:05:33.869Z,22.37
2023-04-08T23:08:01.861Z,22.03
2023-04-08T23:10:29.805Z,23.40
2023-04-08T23:12:57.804Z,22.37
2023-04-08T23:15:25.866Z,22.23
2023-04-08T23:17:55.293Z,21.17
2023-04-08T23:20:23.380Z,20.00
2023-04-08T23:22:51.753Z,19.50
2023-04-08T23:25:19.876Z,20.53
2023-04-08T23:27:47.860Z,19.50
2023-04-08T23:30:17.276Z,19.13
2023-04-08T23:32:45.420Z,20.50
2023-04-08T23:35:16.427Z,18.20
2023-04-08T23:37:44.636Z,19.40
2023-04-08T23:40:13.076Z,18.20
2023-04-08T23:42:41.029Z,18.30
2023-04-08T23:45:09.721Z,15.97
2023-04-08T23:47:37.731Z,17.23
2023-04-08T23:50:06.716Z,17.77
2023-04-08T23:52:36.010Z,17.20
2023-04-08T23:55:04.060Z,16.90
2023-04-08T23:57:32.049Z,17.67
